createdAt,value
2023-03-27T00:02:21.586Z,2.77
2023-03-27T00:04:51.611Z,2.57
2023-03-27T00:07:20.998Z,2.90
2023-03-27T00:09:55.768Z,2.47
2023-03-27T00:12:24.484Z,2.40
2023-03-27T00:14:56.847Z,2.20
2023-03-27T00:20:23.236Z,2.47
2023-03-27T00:26:15.155Z,2.37
2023-03-27T00:32:09.448Z,2.33
2023-03-27T00:34:41.730Z,2.40
2023-03-27T00:37:14.575Z,2.33
2023-03-27T00:39:50.162Z,2.47
2023-03-27T00:42:31.120Z,2.73
2023-03-27T00:45:00.852Z,2.03
2023-03-27T00:47:34.355Z,2.37
2023-03-27T01:47:39.146Z,2.53
2023-03-27T01:50:21.093Z,1.90
2023-03-27T01:52:55.042Z,1.80
2023-03-27T01:55:30.891Z,2.03
2023-03-27T01:58:03.291Z,2.77
2023-03-27T02:37:06.903Z,1.33
2023-03-27T02:39:44.470Z,1.63
2023-03-27T02:42:19.329Z,1.80
2023-03-27T02:44:52.363Z,1.40
2023-03-27T02:47:25.972Z,1.87
2023-03-27T02:50:02.423Z,1.90
2023-03-27T02:52:43.524Z,2.10
2023-03-27T02:55:17.548Z,2.07
2023-03-27T02:57:51.785Z,2.33
2023-03-27T04:21:16.739Z,2.37
2023-03-27T04:23:48.774Z,2.57
2023-03-27T04:26:18.211Z,2.10
2023-03-27T04:28:50.553Z,2.30
2023-03-27T04:31:21.487Z,2.17
2023-03-27T04:33:52.642Z,2.37
2023-03-27T04:40:14.937Z,2.53
2023-03-27T04:42:45.190Z,2.40
2023-03-27T04:45:20.502Z,1.50
2023-03-27T04:47:49.894Z,2.40
2023-03-27T04:50:24.988Z,2.27
2023-03-27T04:52:58.985Z,1.83
2023-03-27T04:55:38.077Z,2.10
2023-03-27T04:58:08.413Z,2.07
2023-03-27T05:00:36.764Z,12.60
2023-03-27T05:03:06.171Z,1.67
2023-03-27T05:05:36.903Z,2.03
2023-03-27T05:08:06.706Z,2.37
2023-03-27T05:10:37.486Z,2.60
2023-03-27T05:13:06.949Z,2.13
2023-03-27T05:15:36.364Z,3.03
2023-03-27T05:18:06.373Z,2.53
2023-03-27T05:20:35.883Z,2.03
2023-03-27T05:23:04.525Z,3.37
2023-03-27T05:25:34.643Z,2.30
2023-03-27T05:28:07.798Z,1.90
2023-03-27T05:30:36.754Z,2.00
2023-03-27T05:33:06.726Z,2.60
2023-03-27T05:35:38.133Z,3.27
2023-03-27T05:38:07.640Z,2.37
2023-03-27T05:40:37.454Z,3.27
2023-03-27T05:43:12.268Z,4.30
2023-03-27T05:45:41.755Z,3.27
2023-03-27T05:48:13.213Z,3.33
2023-03-27T05:50:44.347Z,2.43
2023-03-27T05:53:17.812Z,3.10
2023-03-27T05:55:49.317Z,3.00
2023-03-27T05:58:43.315Z,2.90
2023-03-27T06:01:14.686Z,2.27
2023-03-27T06:03:44.549Z,3.17
2023-03-27T06:06:23.661Z,2.83
2023-03-27T06:08:56.240Z,3.63
2023-03-27T06:11:28.521Z,3.00
2023-03-27T06:13:58.914Z,3.33
2023-03-27T06:16:28.235Z,3.50
2023-03-27T06:18:57.884Z,2.87
2023-03-27T06:21:30.730Z,3.23
2023-03-27T06:24:11.332Z,3.53
2023-03-27T06:26:41.508Z,3.93
2023-03-27T06:29:13.940Z,3.13
2023-03-27T06:31:44.285Z,3.57
2023-03-27T06:34:16.293Z,3.50
2023-03-27T06:36:44.764Z,4.27
2023-03-27T06:39:14.835Z,3.83
2023-03-27T06:41:45.594Z,4.17
2023-03-27T06:44:15.794Z,3.93
2023-03-27T06:46:45.956Z,4.50
2023-03-27T06:49:24.023Z,3.30
2023-03-27T06:52:01.111Z,3.70
2023-03-27T06:54:30.981Z,4.50
2023-03-27T07:00:29.079Z,3.70
2023-03-27T07:09:27.470Z,3.70
2023-03-27T07:11:58.613Z,4.80
2023-03-27T07:14:48.912Z,3.83
2023-03-27T07:17:48.761Z,4.23
2023-03-27T07:20:19.643Z,3.07
2023-03-27T07:28:51.367Z,3.50
2023-03-27T07:31:51.045Z,4.40
2023-03-27T07:34:57.406Z,3.37
2023-03-27T07:43:25.863Z,4.33
2023-03-27T07:46:07.684Z,4.13
2023-03-27T07:51:52.162Z,5.33
2023-03-27T07:57:23.803Z,3.80
2023-03-27T08:00:09.753Z,3.70
2023-03-27T08:03:22.725Z,3.07
2023-03-27T08:23:23.523Z,4.10
2023-03-27T08:29:04.905Z,5.43
2023-03-27T08:35:38.910Z,6.40
2023-03-27T08:41:53.025Z,5.60
2023-03-27T09:10:32.381Z,7.10
2023-03-27T09:20:16.764Z,5.90
2023-03-27T09:29:02.229Z,5.13
2023-03-27T09:31:34.965Z,5.73
2023-03-27T09:37:05.967Z,5.80
2023-03-27T09:39:56.594Z,6.07
2023-03-27T09:42:31.318Z,5.83
2023-03-27T09:51:01.630Z,6.37
2023-03-27T09:53:39.345Z,6.57
2023-03-27T09:56:16.527Z,7.23
2023-03-27T09:58:49.394Z,6.20
2023-03-27T10:01:20.602Z,5.63
2023-03-27T10:03:53.593Z,6.90
2023-03-27T10:06:30.606Z,6.53
2023-03-27T10:09:01.584Z,7.07
2023-03-27T10:11:35.709Z,6.73
2023-03-27T10:14:17.874Z,6.73
2023-03-27T10:16:48.877Z,7.77
2023-03-27T10:19:30.820Z,7.07
2023-03-27T10:22:05.634Z,7.10
2023-03-27T10:24:51.256Z,6.60
2023-03-27T10:27:40.509Z,6.50
2023-03-27T10:33:15.843Z,7.47
2023-03-27T10:35:46.393Z,7.80
2023-03-27T10:41:05.886Z,7.87
2023-03-27T10:43:43.296Z,7.10
2023-03-27T10:46:17.415Z,7.33
2023-03-27T10:48:54.799Z,7.50
2023-03-27T10:51:45.544Z,7.57
2023-03-27T10:54:31.842Z,7.43
2023-03-27T10:57:06.404Z,7.20
2023-03-27T10:59:48.064Z,7.40
2023-03-27T11:02:21.050Z,7.67
2023-03-27T11:05:10.664Z,7.50
2023-03-27T11:07:58.366Z,7.37
2023-03-27T11:10:33.592Z,7.27
2023-03-27T11:13:08.020Z,6.23
2023-03-27T11:15:42.460Z,5.77
2023-03-27T11:18:17.391Z,5.40
2023-03-27T11:20:50.975Z,6.00
2023-03-27T11:23:28.036Z,6.27
2023-03-27T11:26:00.315Z,5.87
2023-03-27T11:28:39.953Z,5.73
2023-03-27T11:31:38.908Z,5.10
2023-03-27T11:37:19.334Z,4.57
2023-03-27T11:40:21.402Z,4.20
2023-03-27T11:46:12.957Z,4.40
2023-03-27T11:52:43.342Z,3.80
2023-03-27T11:55:25.851Z,4.73
2023-03-27T11:58:17.073Z,4.50
2023-03-27T12:00:58.254Z,5.10
2023-03-27T12:03:53.145Z,5.03
2023-03-27T12:06:27.252Z,5.50
2023-03-27T12:09:22.276Z,5.00
2023-03-27T12:11:59.504Z,4.97
2023-03-27T12:14:51.627Z,5.00
2023-03-27T12:17:39.943Z,4.83
2023-03-27T13:26:43.100Z,3.33
2023-03-27T13:29:19.032Z,3.50
2023-03-27T13:32:06.351Z,2.80
2023-03-27T13:40:28.143Z,2.60
2023-03-27T13:54:13.265Z,3.30
2023-03-27T13:56:58.378Z,2.73
2023-03-27T14:00:04.215Z,2.10
2023-03-27T14:03:15.110Z,2.53
2023-03-27T14:06:10.210Z,2.40
2023-03-27T14:08:46.823Z,2.30
2023-03-27T14:17:09.602Z,2.10
2023-03-27T14:20:22.515Z,1.87
2023-03-27T14:23:02.325Z,1.60
2023-03-27T14:28:34.455Z,1.90
2023-03-27T14:31:09.665Z,1.47
2023-03-27T14:33:51.629Z,1.70
2023-03-27T14:36:35.879Z,1.90
2023-03-27T14:39:12.989Z,2.50
2023-03-27T14:41:47.767Z,2.50
2023-03-27T14:44:19.187Z,2.30
2023-03-27T14:47:16.868Z,2.83
2023-03-27T14:53:31.322Z,2.17
2023-03-27T15:02:50.801Z,3.07
2023-03-27T15:18:20.853Z,3.97
2023-03-27T15:21:01.366Z,4.30
2023-03-27T16:06:01.836Z,1.50
2023-03-27T16:08:34.514Z,1.20
2023-03-27T18:14:31.324Z,7.20
2023-03-27T18:17:04.636Z,7.73
2023-03-27T19:05:48.197Z,3.00
2023-03-27T21:02:37.798Z,3.90
2023-03-27T21:05:12.999Z,4.80
2023-03-27T21:07:52.881Z,5.07
